Time;durP1;ratioP1;P1;durP2;ratioP2;P2;SDS_P1;SDS_P2;PMS_P1;PMS_P2;Temp;Humidity;BMP_temperature;BMP_pressure;BME280_temperature;BME280_humidity;BME280_pressure;Samples;Min_cycle;Max_cycle;Signal;HPM_P1;HPM_P2
2022/10/10 00:01:40;;;;;;;14.65;13.35;;;;;;;13.52;66.98;95645.47;5084934;28;20207;-65
2022/10/10 00:04:06;;;;;;;14.88;13.40;;;;;;;13.57;66.93;95643.19;5086474;28;20246;-67
2022/10/10 00:06:32;;;;;;;15.23;13.63;;;;;;;13.70;66.12;95646.25;5086137;28;20252;-65
2022/10/10 00:08:57;;;;;;;15.68;14.25;;;;;;;13.65;66.10;95646.72;5083677;28;20200;-66
2022/10/10 00:11:23;;;;;;;14.25;12.95;;;;;;;13.56;66.36;95652.94;5088898;28;20188;-67
2022/10/10 00:13:50;;;;;;;15.20;13.80;;;;;;;13.48;66.81;95655.53;5081159;28;20184;-67
2022/10/10 00:16:17;;;;;;;14.18;12.88;;;;;;;13.43;67.33;95658.63;5100115;28;20275;-65
2022/10/10 00:18:43;;;;;;;13.35;12.18;;;;;;;13.49;67.01;95656.34;5081865;28;20188;-65
2022/10/10 00:21:09;;;;;;;14.55;13.05;;;;;;;13.55;66.60;95655.72;5083876;28;20256;-66
2022/10/10 00:23:35;;;;;;;13.80;12.75;;;;;;;13.50;66.73;95645.66;5076135;28;20200;-66
2022/10/10 00:26:02;;;;;;;14.80;13.30;;;;;;;13.39;67.29;95652.00;5081685;28;20246;-66
2022/10/10 00:28:27;;;;;;;15.30;13.90;;;;;;;13.50;66.51;95644.78;5074553;28;20203;-66
2022/10/10 00:30:53;;;;;;;15.63;14.15;;;;;;;13.48;66.52;95644.97;5083113;28;20192;-66
2022/10/10 00:33:18;;;;;;;16.30;14.80;;;;;;;13.30;66.96;95642.34;5085277;28;20842;-66
2022/10/10 00:35:43;;;;;;;16.40;14.70;;;;;;;13.17;67.27;95637.41;5082212;28;20261;-66
2022/10/10 00:38:10;;;;;;;15.15;13.63;;;;;;;13.14;67.36;95645.66;5080598;28;20208;-66
2022/10/10 00:40:52;;;;;;;15.52;13.80;;;;;;;13.16;67.42;95645.50;5081053;28;20185;-66
2022/10/10 00:43:19;;;;;;;16.15;14.43;;;;;;;13.13;67.48;95645.81;5085660;28;20184;-67
2022/10/10 00:45:46;;;;;;;17.20;15.43;;;;;;;13.15;67.48;95649.09;5083536;28;20223;-66
2022/10/10 00:48:19;;;;;;;15.68;14.05;;;;;;;13.21;67.37;95649.34;5083263;28;20204;-66
2022/10/10 00:50:53;;;;;;;16.02;14.38;;;;;;;13.03;67.64;95651.16;5083867;28;20188;-66
2022/10/10 00:53:23;;;;;;;15.93;14.35;;;;;;;13.02;67.77;95649.53;5083920;28;20208;-66
2022/10/10 00:55:50;;;;;;;15.75;14.20;;;;;;;13.16;67.41;95650.78;5085009;28;20216;-65
2022/10/10 00:58:16;;;;;;;16.58;15.07;;;;;;;13.14;67.11;95648.28;5080354;28;20188;-67
2022/10/10 01:00:44;;;;;;;17.08;15.32;;;;;;;12.99;67.36;95649.78;5082061;28;20246;-67
2022/10/10 01:03:10;;;;;;;16.73;15.15;;;;;;;12.85;68.36;95660.88;5084731;28;20191;-67
2022/10/10 01:05:36;;;;;;;17.17;15.68;;;;;;;12.76;68.74;95659.97;5086233;28;20191;-66
2022/10/10 01:08:04;;;;;;;16.38;14.98;;;;;;;12.86;68.40;95652.84;5083920;28;20240;-67
2022/10/10 01:10:43;;;;;;;16.25;14.75;;;;;;;12.77;68.46;95649.25;5086509;28;20267;-65
2022/10/10 01:13:45;;;;;;;19.40;15.00;;;;;;;12.84;68.31;95656.59;5098404;28;20275;-66
2022/10/10 01:16:26;;;;;;;15.90;14.35;;;;;;;12.93;67.96;95659.16;5006863;28;20195;-65
2022/10/10 01:19:14;;;;;;;16.35;14.65;;;;;;;12.87;67.68;95662.41;5004144;28;20190;-65
2022/10/10 01:22:13;;;;;;;16.00;14.30;;;;;;;12.76;68.12;95659.97;4933850;29;20228;-66
2022/10/10 01:24:49;;;;;;;16.45;14.80;;;;;;;12.75;68.63;95664.44;4918103;29;20310;-66
2022/10/10 01:27:17;;;;;;;16.63;15.00;;;;;;;12.73;68.53;95665.56;4932867;29;20261;-65
2022/10/10 01:29:56;;;;;;;16.00;14.68;;;;;;;12.70;68.74;95657.94;4933026;29;20216;-65
2022/10/10 01:32:37;;;;;;;17.25;15.48;;;;;;;12.68;68.55;95670.44;4917370;29;20256;-65
2022/10/10 01:35:28;;;;;;;16.58;15.15;;;;;;;12.81;68.69;95663.00;4933275;29;20460;-65
2022/10/10 01:38:21;;;;;;;16.33;14.70;;;;;;;12.68;68.75;95662.53;4917018;29;20193;-65
2022/10/10 01:41:16;;;;;;;16.20;14.60;;;;;;;12.60;68.66;95665.91;4917710;29;20276;-65
2022/10/10 01:43:41;;;;;;;15.98;14.48;;;;;;;12.60;68.92;95660.63;4917626;29;20193;-65
2022/10/10 01:46:16;;;;;;;16.13;14.70;;;;;;;12.56;69.26;95661.91;4917606;29;20197;-65
2022/10/10 01:48:44;;;;;;;16.23;14.52;;;;;;;12.59;69.28;95661.63;4917953;29;20213;-65
2022/10/10 01:51:16;;;;;;;16.55;14.98;;;;;;;12.60;69.32;95660.63;4933194;29;20220;-65
2022/10/10 01:54:06;;;;;;;15.57;14.18;;;;;;;12.61;68.86;95649.09;4966448;28;20224;-65
2022/10/10 01:56:58;;;;;;;16.40;13.85;;;;;;;12.57;68.85;95660.94;4976237;28;20216;-65
2022/10/10 02:00:01;;;;;;;15.02;13.73;;;;;;;12.50;69.05;95662.50;5052225;28;20417;-66
2022/10/10 02:02:29;;;;;;;14.95;13.48;;;;;;;12.45;69.63;95659.47;4992840;28;20211;-66
2022/10/10 02:05:06;;;;;;;14.95;13.45;;;;;;;12.57;69.21;95661.75;5008369;28;20198;-66
2022/10/10 02:07:42;;;;;;;16.30;14.57;;;;;;;12.48;69.62;95661.81;4991376;28;20203;-66
2022/10/10 02:10:10;;;;;;;15.77;14.25;;;;;;;12.31;70.08;95666.91;4993031;28;20182;-66
2022/10/10 02:12:37;;;;;;;15.77;14.23;;;;;;;12.45;69.65;95662.94;4999266;28;20191;-66
2022/10/10 02:15:10;;;;;;;15.00;13.70;;;;;;;12.27;70.26;95664.69;4994591;28;20183;-66
2022/10/10 02:17:38;;;;;;;19.73;13.75;;;;;;;12.21;70.35;95666.09;4999980;28;20239;-66
2022/10/10 02:20:06;;;;;;;13.73;12.52;;;;;;;12.22;70.26;95670.41;4994745;28;20314;-66
2022/10/10 02:22:33;;;;;;;14.10;12.77;;;;;;;12.41;69.92;95671.31;4989411;28;20285;-65
2022/10/10 02:24:59;;;;;;;17.05;13.15;;;;;;;12.54;69.10;95666.50;5006860;28;20183;-66
2022/10/10 02:27:34;;;;;;;14.32;12.93;;;;;;;12.48;69.04;95667.09;4999692;28;20183;-65
2022/10/10 02:30:02;;;;;;;15.10;13.80;;;;;;;12.36;69.48;95663.81;4994884;28;20196;-65
2022/10/10 02:32:35;;;;;;;15.38;13.98;;;;;;;12.47;68.86;95668.91;4996493;28;20201;-66
2022/10/10 02:35:08;;;;;;;14.85;13.50;;;;;;;12.55;68.67;95671.63;4994577;28;20207;-67
2022/10/10 02:37:35;;;;;;;15.65;13.93;;;;;;;12.45;69.02;95667.38;4992946;28;20246;-67
2022/10/10 02:40:05;;;;;;;14.93;13.55;;;;;;;12.36;69.12;95666.47;5079495;28;20224;-66
2022/10/10 02:42:31;;;;;;;16.45;14.75;;;;;;;12.30;69.09;95675.78;5088970;28;20230;-66
2022/10/10 02:44:56;;;;;;;15.27;13.70;;;;;;;12.32;69.01;95673.84;5085871;28;20208;-66
2022/10/10 02:47:22;;;;;;;14.27;12.88;;;;;;;12.28;69.46;95672.47;5082718;28;20192;-66
2022/10/10 02:49:48;;;;;;;15.48;14.00;;;;;;;12.33;69.44;95672.03;5088264;28;20945;-66
2022/10/10 02:52:15;;;;;;;16.10;14.40;;;;;;;12.23;69.48;95669.44;5081014;28;20218;-66
2022/10/10 02:54:41;;;;;;;15.73;14.25;;;;;;;12.42;68.80;95672.97;5086351;28;20184;-67
2022/10/10 02:57:06;;;;;;;14.70;13.35;;;;;;;12.17;69.45;95669.19;5084096;28;20199;-66
2022/10/10 02:59:32;;;;;;;17.73;14.55;;;;;;;12.19;69.81;95672.50;5086129;28;20371;-66
2022/10/10 03:01:58;;;;;;;15.52;13.98;;;;;;;12.19;69.62;95670.72;5083160;28;20247;-66
2022/10/10 03:04:24;;;;;;;15.52;13.55;;;;;;;12.13;69.25;95666.00;5079583;28;20191;-66
2022/10/10 03:06:49;;;;;;;18.35;13.57;;;;;;;12.12;70.01;95665.19;5083071;28;20256;-67
2022/10/10 03:09:14;;;;;;;15.02;13.57;;;;;;;12.14;69.79;95673.78;5086255;28;20291;-67
2022/10/10 03:11:40;;;;;;;18.70;13.82;;;;;;;12.10;70.44;95674.22;5082665;28;20195;-67
2022/10/10 03:14:05;;;;;;;14.70;13.18;;;;;;;12.15;70.36;95677.25;5084457;28;20177;-66
2022/10/10 03:16:31;;;;;;;15.23;13.75;;;;;;;12.02;70.33;95669.66;5085982;28;20205;-66
2022/10/10 03:18:56;;;;;;;17.17;13.48;;;;;;;12.04;70.64;95680.06;5078532;28;20185;-66
2022/10/10 03:21:22;;;;;;;16.98;15.15;;;;;;;12.00;69.86;95671.63;5082816;28;20181;-66
2022/10/10 03:23:47;;;;;;;16.00;13.65;;;;;;;12.07;69.65;95685.03;5084936;28;20215;-65
2022/10/10 03:26:13;;;;;;;16.88;14.15;;;;;;;11.96;70.13;95686.06;5083054;28;20249;-65
2022/10/10 03:28:38;;;;;;;17.20;14.50;;;;;;;11.97;69.56;95686.88;5085270;28;20204;-66
2022/10/10 03:31:04;;;;;;;16.83;15.20;;;;;;;11.99;69.29;95688.41;5088664;28;20275;-66
2022/10/10 03:33:29;;;;;;;16.40;14.73;;;;;;;11.96;69.46;95683.41;5081723;28;20188;-67
2022/10/10 03:35:55;;;;;;;17.27;14.05;;;;;;;11.90;69.28;95679.56;5084204;28;20184;-67
2022/10/10 03:38:20;;;;;;;16.52;14.57;;;;;;;11.87;70.17;95679.03;5083811;28;20181;-67
2022/10/10 03:40:46;;;;;;;14.75;13.43;;;;;;;11.81;70.22;95685.63;5084243;28;20176;-66
2022/10/10 03:43:12;;;;;;;15.32;13.82;;;;;;;11.73;70.80;95687.34;5086940;28;20184;-66
2022/10/10 03:45:41;;;;;;;15.95;14.32;;;;;;;11.67;70.82;95684.28;5084718;28;20183;-66
2022/10/10 03:48:07;;;;;;;16.52;14.93;;;;;;;11.66;70.62;95676.53;5087923;28;20200;-66
2022/10/10 03:50:32;;;;;;;18.02;16.15;;;;;;;11.66;70.59;95685.28;5082509;28;20200;-66
2022/10/10 03:52:58;;;;;;;16.73;15.05;;;;;;;11.46;71.24;95678.38;5088068;28;21062;-66
2022/10/10 03:55:23;;;;;;;17.92;16.23;;;;;;;11.55;70.97;95684.63;5080407;28;20185;-65
2022/10/10 03:57:49;;;;;;;17.05;15.45;;;;;;;11.58;70.74;95677.25;5083312;28;20180;-66
2022/10/10 04:00:14;;;;;;;17.52;15.75;;;;;;;11.65;70.02;95678.34;5084898;28;20228;-66
2022/10/10 04:02:40;;;;;;;17.98;16.38;;;;;;;11.70;69.79;95689.28;5085487;28;20184;-66
2022/10/10 04:05:06;;;;;;;18.27;16.63;;;;;;;11.49;70.46;95680.72;5082464;28;20204;-66
2022/10/10 04:07:31;;;;;;;18.65;16.75;;;;;;;11.71;69.87;95690.13;5079947;28;20303;-67
2022/10/10 04:09:57;;;;;;;20.90;18.95;;;;;;;11.79;70.09;95692.88;5083937;28;20189;-66
2022/10/10 04:12:22;;;;;;;21.80;19.65;;;;;;;11.60;71.39;95693.75;5079312;28;20185;-68
2022/10/10 04:14:48;;;;;;;18.73;16.98;;;;;;;11.55;70.38;95681.97;5084285;28;20183;-65
2022/10/10 04:17:13;;;;;;;19.58;16.58;;;;;;;11.60;70.36;95695.53;5078741;28;20184;-65
2022/10/10 04:19:39;;;;;;;20.05;17.75;;;;;;;11.44;70.72;95689.06;5096793;28;20188;-66
2022/10/10 04:22:04;;;;;;;18.63;16.73;;;;;;;11.44;70.70;95690.84;5083966;28;20345;-66
2022/10/10 04:24:30;;;;;;;20.40;18.40;;;;;;;11.40;71.29;95700.00;5085729;28;20276;-67
2022/10/10 04:26:56;;;;;;;20.38;17.98;;;;;;;11.27;71.80;95687.94;5084548;28;20238;-66
2022/10/10 04:29:21;;;;;;;20.52;18.52;;;;;;;11.38;71.47;95689.59;5079535;28;20243;-66
2022/10/10 04:31:47;;;;;;;21.55;19.50;;;;;;;11.40;71.38;95682.41;5079035;28;20200;-66
2022/10/10 04:34:13;;;;;;;22.90;20.52;;;;;;;11.44;71.79;95688.19;5081405;28;20181;-67
2022/10/10 04:36:38;;;;;;;22.65;20.38;;;;;;;11.55;71.05;95681.97;5088484;28;20195;-67
2022/10/10 04:39:03;;;;;;;22.10;20.00;;;;;;;11.43;71.18;95684.75;5089859;28;20200;-67
2022/10/10 04:41:29;;;;;;;22.58;20.48;;;;;;;11.36;71.52;95688.06;5089909;28;20177;-67
2022/10/10 04:43:54;;;;;;;22.48;20.10;;;;;;;11.52;71.23;95696.25;5085380;28;20188;-68
2022/10/10 04:46:20;;;;;;;23.45;20.88;;;;;;;11.66;70.43;95697.63;5085532;28;20359;-67
2022/10/10 04:48:45;;;;;;;25.05;22.65;;;;;;;11.77;70.11;95702.72;5088716;28;20245;-66
2022/10/10 04:51:11;;;;;;;25.50;23.02;;;;;;;11.62;70.81;95696.22;5082804;28;20180;-68
2022/10/10 04:53:36;;;;;;;25.65;22.90;;;;;;;11.65;70.78;95698.56;5089231;28;20184;-67
2022/10/10 04:56:02;;;;;;;28.05;25.45;;;;;;;11.65;71.86;95698.56;5083987;28;20207;-67
2022/10/10 04:58:27;;;;;;;25.63;23.17;;;;;;;11.70;71.10;95704.25;5086966;28;20184;-67
2022/10/10 05:00:54;;;;;;;27.77;24.90;;;;;;;11.65;71.42;95701.22;5083103;28;20311;-66
2022/10/10 05:03:21;;;;;;;26.98;24.15;;;;;;;11.67;71.32;95709.81;5091047;28;20187;-64
2022/10/10 05:05:47;;;;;;;25.65;22.92;;;;;;;11.66;71.49;95708.16;5084635;28;20203;-65
2022/10/10 05:08:12;;;;;;;28.83;23.63;;;;;;;11.53;72.13;95707.63;5087199;28;20204;-65
2022/10/10 05:10:38;;;;;;;31.90;24.65;;;;;;;11.45;72.50;95709.16;5081074;28;20303;-66
2022/10/10 05:13:05;;;;;;;27.27;24.40;;;;;;;11.53;72.77;95710.25;5088173;28;20186;-67
2022/10/10 05:15:34;;;;;;;29.83;26.98;;;;;;;11.33;73.96;95714.69;5085563;28;20209;-67
2022/10/10 05:17:59;;;;;;;29.75;26.65;;;;;;;11.65;72.64;95719.66;5085895;28;20258;-67
2022/10/10 05:20:25;;;;;;;35.95;32.15;;;;;;;11.65;72.04;95709.97;5085100;28;20191;-67
2022/10/10 05:22:50;;;;;;;37.55;33.78;;;;;;;11.58;72.21;95713.31;5089687;28;20192;-67
2022/10/10 05:25:16;;;;;;;36.90;33.13;;;;;;;11.47;73.26;95707.22;5086028;28;20276;-66
2022/10/10 05:27:41;;;;;;;35.70;31.95;;;;;;;11.72;72.37;95712.03;5082328;28;20180;-65
2022/10/10 05:30:07;;;;;;;31.52;28.38;;;;;;;11.85;71.97;95718.66;5086177;28;20220;-65
2022/10/10 05:32:32;;;;;;;27.67;25.05;;;;;;;11.99;71.06;95727.94;5085268;28;20678;-66
2022/10/10 05:34:58;;;;;;;27.00;24.33;;;;;;;11.99;71.19;95737.66;5089035;28;20297;-65
2022/10/10 05:37:23;;;;;;;26.75;24.17;;;;;;;12.05;70.83;95730.00;5082799;28;20188;-65
2022/10/10 05:39:49;;;;;;;32.53;25.95;;;;;;;12.30;70.28;95728.53;5090907;28;20195;-66
2022/10/10 05:42:14;;;;;;;27.70;24.90;;;;;;;12.03;72.12;95731.97;5085911;28;20200;-65
2022/10/10 05:44:40;;;;;;;30.05;26.90;;;;;;;12.08;71.77;95729.72;5080257;28;20187;-67
2022/10/10 05:47:05;;;;;;;28.63;25.77;;;;;;;12.25;71.02;95745.78;5087051;28;20189;-66
2022/10/10 05:49:31;;;;;;;28.10;25.17;;;;;;;12.18;71.12;95740.22;5090466;28;20265;-66
2022/10/10 05:51:56;;;;;;;26.67;23.90;;;;;;;12.35;70.54;95736.84;5083932;28;20221;-68
2022/10/10 05:54:21;;;;;;;27.73;24.60;;;;;;;12.51;69.83;95748.56;5082880;28;20205;-70
2022/10/10 05:56:47;;;;;;;26.67;24.02;;;;;;;12.57;69.46;95746.19;5082786;28;20220;-70
2022/10/10 05:59:12;;;;;;;30.50;25.60;;;;;;;12.65;69.34;95742.81;5080247;28;20307;-67
2022/10/10 06:01:38;;;;;;;28.70;25.65;;;;;;;12.45;70.05;95749.97;5086671;28;20196;-67
2022/10/10 06:04:03;;;;;;;27.77;24.85;;;;;;;12.54;69.82;95753.56;5082625;28;20271;-70
2022/10/10 06:06:29;;;;;;;27.45;24.58;;;;;;;12.79;69.71;95762.59;5085399;28;20189;-66
2022/10/10 06:08:54;;;;;;;25.98;23.58;;;;;;;12.89;68.50;95752.81;5082005;28;20209;-66
2022/10/10 06:11:22;;;;;;;26.23;23.50;;;;;;;13.03;68.38;95762.03;5089068;28;20184;-66
2022/10/10 06:13:52;;;;;;;22.13;19.85;;;;;;;13.11;67.36;95761.31;5082594;28;20177;-67
2022/10/10 06:16:19;;;;;;;25.60;19.35;;;;;;;13.27;66.69;95766.78;5081847;28;20192;-65
2022/10/10 06:18:45;;;;;;;18.88;16.33;;;;;;;13.31;65.95;95764.66;5069894;28;20214;-66
2022/10/10 06:21:11;;;;;;;23.60;18.38;;;;;;;13.35;65.82;95761.59;5087647;28;20214;-67
2022/10/10 06:23:36;;;;;;;19.42;17.38;;;;;;;13.60;65.51;95759.97;5084313;28;20180;-66
2022/10/10 06:26:03;;;;;;;23.15;17.77;;;;;;;13.80;65.17;95765.94;5082772;28;20262;-66
2022/10/10 06:28:28;;;;;;;24.52;18.63;;;;;;;13.86;64.58;95765.31;5079514;28;20223;-65
2022/10/10 06:31:01;;;;;;;19.45;17.55;;;;;;;14.06;64.00;95773.91;5083771;28;20192;-65
2022/10/10 06:33:26;;;;;;;19.98;17.92;;;;;;;14.31;63.00;95776.72;5084749;28;20219;-66
2022/10/10 06:35:52;;;;;;;20.55;18.15;;;;;;;14.23;63.12;95768.72;5077275;28;20193;-65
2022/10/10 06:38:17;;;;;;;19.00;17.17;;;;;;;14.29;63.28;95770.75;5084163;28;20180;-67
2022/10/10 06:40:43;;;;;;;19.98;18.00;;;;;;;14.45;62.95;95775.28;5083698;28;20180;-62
2022/10/10 06:43:11;;;;;;;22.70;20.08;;;;;;;14.38;63.44;95777.75;5080922;28;20177;-62
2022/10/10 06:45:38;;;;;;;22.92;20.55;;;;;;;14.10;63.60;95777.06;5079964;28;20184;-63
2022/10/10 06:48:03;;;;;;;27.48;22.65;;;;;;;14.15;63.26;95777.44;5079298;28;20201;-65
2022/10/10 06:50:29;;;;;;;26.08;22.27;;;;;;;14.31;63.52;95772.25;5079718;28;20185;-63
2022/10/10 06:52:54;;;;;;;25.73;23.00;;;;;;;14.51;63.69;95783.44;5088075;28;20188;-68
2022/10/10 06:55:20;;;;;;;23.92;21.45;;;;;;;14.70;63.06;95770.97;5086377;28;20236;-64
2022/10/10 06:57:45;;;;;;;24.02;20.45;;;;;;;14.65;62.67;95776.75;5085127;28;20185;-64
2022/10/10 07:00:11;;;;;;;27.13;21.30;;;;;;;14.73;62.72;95775.97;5079559;28;20254;-65
2022/10/10 07:02:40;;;;;;;22.80;20.42;;;;;;;14.92;61.75;95775.72;5085719;28;20200;-65
2022/10/10 07:05:07;;;;;;;23.15;20.63;;;;;;;14.91;61.57;95781.97;5085741;28;20192;-65
2022/10/10 07:07:33;;;;;;;23.08;20.85;;;;;;;14.90;60.81;95782.97;5083856;28;20204;-66
2022/10/10 07:09:59;;;;;;;24.13;21.90;;;;;;;14.94;60.92;95780.84;5087397;28;20217;-64
2022/10/10 07:12:24;;;;;;;23.20;21.10;;;;;;;14.77;61.76;95783.41;5080922;28;20209;-68
2022/10/10 07:14:50;;;;;;;23.58;20.92;;;;;;;14.95;61.49;95785.97;5080575;28;20184;-63
2022/10/10 07:17:15;;;;;;;24.48;21.05;;;;;;;14.99;61.46;95774.09;5082155;28;20181;-65
2022/10/10 07:19:41;;;;;;;23.77;20.95;;;;;;;15.03;61.08;95782.53;5079443;28;20213;-64
2022/10/10 07:22:06;;;;;;;23.58;20.85;;;;;;;15.13;60.84;95779.72;5084166;28;20185;-63
2022/10/10 07:24:31;;;;;;;21.27;19.10;;;;;;;15.17;60.02;95768.66;5091155;28;20184;-64
2022/10/10 07:26:57;;;;;;;22.63;20.17;;;;;;;15.12;60.88;95773.63;5077514;28;20185;-65
2022/10/10 07:29:23;;;;;;;20.60;18.77;;;;;;;15.41;59.84;95773.19;5086992;28;20203;-65
2022/10/10 07:31:49;;;;;;;19.92;17.70;;;;;;;15.47;59.35;95777.00;5082284;28;20275;-63
2022/10/10 07:34:14;;;;;;;19.00;17.25;;;;;;;15.51;58.69;95778.34;5086706;28;20180;-64
2022/10/10 07:36:40;;;;;;;21.95;17.48;;;;;;;15.53;60.13;95775.53;5080859;28;20223;-64
2022/10/10 07:39:06;;;;;;;18.85;17.00;;;;;;;15.48;59.13;95772.56;5084022;28;20245;-66
2022/10/10 07:41:31;;;;;;;19.60;17.65;;;;;;;15.60;58.75;95766.75;5085824;28;20189;-65
2022/10/10 07:43:57;;;;;;;20.55;18.10;;;;;;;15.54;58.71;95758.63;5086038;28;20210;-66
2022/10/10 07:46:23;;;;;;;19.65;17.65;;;;;;;15.74;58.58;95767.13;5082705;28;20184;-66
2022/10/10 07:48:49;;;;;;;19.48;17.50;;;;;;;15.68;58.69;95763.28;5074724;28;20236;-64
2022/10/10 07:51:14;;;;;;;18.83;16.92;;;;;;;15.86;58.53;95756.03;5085711;28;20207;-65
2022/10/10 07:53:40;;;;;;;17.73;16.02;;;;;;;15.80;58.54;95764.66;5082947;28;20222;-65
2022/10/10 07:56:07;;;;;;;18.45;16.52;;;;;;;16.10;58.35;95762.31;5086040;28;20195;-65
2022/10/10 07:58:34;;;;;;;18.08;14.55;;;;;;;16.32;57.56;95764.25;5078114;28;20177;-65
2022/10/10 08:01:04;;;;;;;15.73;14.13;;;;;;;16.41;57.65;95750.97;5081216;28;20237;-65
2022/10/10 08:03:30;;;;;;;13.63;12.23;;;;;;;16.52;56.58;95756.75;5078972;28;20200;-64
2022/10/10 08:05:55;;;;;;;15.52;13.77;;;;;;;16.41;59.04;95757.13;5080776;28;20242;-65
2022/10/10 08:08:21;;;;;;;15.20;12.85;;;;;;;16.48;57.82;95751.94;5078083;28;20226;-66
2022/10/10 08:10:46;;;;;;;17.83;12.20;;;;;;;16.61;57.81;95746.13;5085192;28;20184;-66
2022/10/10 08:13:12;;;;;;;14.13;11.50;;;;;;;16.78;57.24;95741.59;5083445;28;20180;-65
2022/10/10 08:15:42;;;;;;;12.32;10.90;;;;;;;16.89;56.89;95741.19;5078779;28;20173;-66
2022/10/10 08:18:07;;;;;;;11.90;10.77;;;;;;;17.06;56.52;95748.09;5084390;28;20698;-65
2022/10/10 08:20:33;;;;;;;12.00;10.15;;;;;;;17.17;56.03;95739.75;5084195;28;20330;-65
2022/10/10 08:22:58;;;;;;;13.18;9.93;;;;;;;17.32;55.89;95744.28;5065005;28;20188;-66
2022/10/10 08:25:23;;;;;;;12.68;9.93;;;;;;;17.37;56.91;95750.78;5083422;28;20184;-67
2022/10/10 08:27:49;;;;;;;12.32;10.30;;;;;;;17.52;55.61;95748.16;5087554;28;20188;-66
2022/10/10 08:30:14;;;;;;;11.32;9.65;;;;;;;17.62;55.98;95755.91;5083455;28;20219;-64
2022/10/10 08:32:40;;;;;;;15.05;10.02;;;;;;;17.71;55.09;95754.00;5083501;28;20245;-66
2022/10/10 08:35:06;;;;;;;14.68;10.43;;;;;;;17.90;54.19;95742.91;5081503;28;20253;-65
2022/10/10 08:37:31;;;;;;;13.60;9.40;;;;;;;18.02;53.31;95740.66;5083839;28;20193;-67
2022/10/10 08:39:56;;;;;;;14.68;9.07;;;;;;;18.09;52.63;95741.56;5076988;28;20181;-66
2022/10/10 08:42:37;;;;;;;11.20;9.00;;;;;;;18.13;52.36;95747.38;5083047;28;20265;-66
2022/10/10 08:45:11;;;;;;;10.55;8.95;;;;;;;18.23;52.97;95745.25;5086095;28;20188;-67
2022/10/10 08:47:45;;;;;;;12.82;8.77;;;;;;;18.30;52.31;95751.53;5083133;28;20193;-64
2022/10/10 08:50:49;;;;;;;10.32;9.15;;;;;;;18.43;52.67;95761.56;5079768;28;20275;-66
2022/10/10 08:53:25;;;;;;;10.27;8.57;;;;;;;18.48;51.38;95757.34;5074007;28;20279;-67
2022/10/10 08:55:52;;;;;;;12.35;9.10;;;;;;;18.64;50.89;95752.84;5080071;28;20188;-69
2022/10/10 08:58:23;;;;;;;11.02;7.70;;;;;;;18.57;49.51;95755.41;5079167;28;20566;-66
2022/10/10 09:01:04;;;;;;;9.10;8.05;;;;;;;18.76;49.84;95761.22;5078150;28;20228;-67
2022/10/10 09:03:40;;;;;;;11.70;7.97;;;;;;;18.76;49.62;95766.56;5085140;28;20211;-67
2022/10/10 09:06:16;;;;;;;8.68;7.88;;;;;;;18.91;49.19;95770.88;5079446;28;20197;-66
2022/10/10 09:08:59;;;;;;;8.55;6.70;;;;;;;18.84;49.55;95766.47;5078180;28;20215;-66
2022/10/10 09:11:48;;;;;;;8.43;6.75;;;;;;;18.83;47.98;95762.97;5073912;28;20203;-67
2022/10/10 09:14:38;;;;;;;8.18;7.13;;;;;;;18.93;48.08;95771.50;5084479;28;20181;-65
2022/10/10 09:17:22;;;;;;;7.25;6.32;;;;;;;18.95;47.30;95772.16;5079822;28;20181;-65
2022/10/10 09:20:06;;;;;;;7.22;6.47;;;;;;;18.93;47.58;95771.50;5080562;28;20184;-66
2022/10/10 09:22:39;;;;;;;10.85;7.82;;;;;;;18.92;48.79;95769.88;5076775;28;20381;-65
2022/10/10 09:25:17;;;;;;;8.43;7.18;;;;;;;18.88;48.33;95759.75;5087940;28;20192;-67
2022/10/10 09:27:51;;;;;;;14.15;6.60;;;;;;;18.91;49.08;95765.53;5084046;28;20188;-66
2022/10/10 09:30:19;;;;;;;7.25;6.53;;;;;;;19.04;48.06;95769.41;5084782;28;20461;-67
2022/10/10 09:32:48;;;;;;;7.60;6.55;;;;;;;19.04;47.98;95767.56;5082403;28;20223;-68
2022/10/10 09:35:23;;;;;;;7.22;6.53;;;;;;;19.14;48.22;95769.94;5085520;28;20180;-70
2022/10/10 09:37:54;;;;;;;7.82;6.13;;;;;;;19.04;48.72;95772.06;5083916;28;20298;-71
2022/10/10 09:40:37;;;;;;;8.65;5.97;;;;;;;19.14;46.31;95775.28;5083055;28;20223;-67
2022/10/10 09:43:30;;;;;;;7.03;6.32;;;;;;;19.10;46.46;95771.31;5087531;28;20185;-68
2022/10/10 09:45:55;;;;;;;12.35;6.88;;;;;;;19.13;46.87;95768.25;5082171;28;20202;-65
2022/10/10 09:48:27;;;;;;;7.90;6.53;;;;;;;19.16;46.24;95768.75;5083310;28;20197;-63
2022/10/10 09:50:53;;;;;;;9.35;7.10;;;;;;;19.03;46.88;95773.06;5086106;28;20180;-63
2022/10/10 09:53:18;;;;;;;10.02;6.75;;;;;;;19.01;46.44;95769.78;5086948;28;20188;-61
2022/10/10 09:55:45;;;;;;;7.50;6.35;;;;;;;19.03;46.90;95770.38;5089387;28;20186;-62
2022/10/10 09:58:13;;;;;;;7.50;6.32;;;;;;;19.13;46.53;95760.25;5087041;28;20191;-67
2022/10/10 10:00:39;;;;;;;7.65;6.63;;;;;;;19.04;46.43;95759.56;5080676;28;20229;-70
2022/10/10 10:03:09;;;;;;;11.32;6.65;;;;;;;19.11;46.76;95764.94;5085655;28;20196;-69
2022/10/10 10:05:34;;;;;;;8.25;6.20;;;;;;;19.29;47.13;95753.88;5080354;28;20172;-69
2022/10/10 10:08:00;;;;;;;9.90;6.85;;;;;;;19.41;45.87;95764.91;5088125;28;20191;-68
2022/10/10 10:10:28;;;;;;;11.57;7.13;;;;;;;19.54;44.88;95754.34;5085032;28;20186;-69
2022/10/10 10:12:55;;;;;;;9.10;6.65;;;;;;;19.46;45.70;95749.16;5081068;28;20195;-69
2022/10/10 10:15:24;;;;;;;7.90;6.32;;;;;;;19.41;46.11;95749.72;5081889;28;20234;-68
2022/10/10 10:18:10;;;;;;;8.02;6.40;;;;;;;19.34;47.32;95754.97;5083810;28;20188;-68
2022/10/10 10:20:39;;;;;;;10.38;6.10;;;;;;;19.53;45.55;95755.38;5082964;28;20197;-68
2022/10/10 10:23:22;;;;;;;9.15;5.93;;;;;;;19.66;45.18;95749.38;5082046;28;20278;-69
2022/10/10 10:26:16;;;;;;;8.27;6.10;;;;;;;19.72;44.78;95741.44;5078122;28;20187;-69
2022/10/10 10:28:42;;;;;;;9.55;6.07;;;;;;;19.80;44.64;95748.50;5076939;28;20216;-69
2022/10/10 10:31:19;;;;;;;7.60;5.18;;;;;;;19.78;44.14;95745.19;5087367;28;20199;-68
2022/10/10 10:33:52;;;;;;;9.75;5.97;;;;;;;19.75;44.34;95746.41;5086759;28;20215;-66
2022/10/10 10:36:57;;;;;;;7.10;5.50;;;;;;;19.62;44.20;95748.94;5082221;28;20180;-69
2022/10/10 10:39:52;;;;;;;7.82;5.32;;;;;;;19.59;44.87;95743.94;5023678;28;20305;-66
2022/10/10 10:43:04;;;;;;;7.32;5.72;;;;;;;19.45;46.25;95742.16;5029606;28;20190;-66
2022/10/10 10:45:37;;;;;;;6.10;5.50;;;;;;;19.42;46.12;95734.56;5029356;28;20190;-68
2022/10/10 10:48:28;;;;;;;6.68;5.65;;;;;;;19.33;45.94;95737.34;5032118;28;20248;-68
2022/10/10 10:51:03;;;;;;;7.05;5.82;;;;;;;19.43;45.03;95733.53;5029006;28;20198;-67
2022/10/10 10:53:38;;;;;;;6.30;5.70;;;;;;;19.25;46.73;95740.13;5038114;28;20276;-68
2022/10/10 10:56:15;;;;;;;10.27;5.35;;;;;;;19.24;45.32;95737.63;5027060;28;20247;-68
2022/10/10 10:59:03;;;;;;;7.70;5.43;;;;;;;19.22;45.16;95743.16;5041195;28;20185;-66
2022/10/10 11:01:47;;;;;;;10.02;6.50;;;;;;;19.14;45.70;95735.28;5029515;28;20231;-67
2022/10/10 11:05:00;;;;;;;6.18;5.40;;;;;;;19.11;45.35;95730.31;5024934;28;20210;-66
2022/10/10 11:07:33;;;;;;;6.28;5.68;;;;;;;19.10;45.11;95720.66;4993890;28;20205;-69
2022/10/10 11:10:29;;;;;;;6.38;5.50;;;;;;;19.17;45.05;95718.91;5005899;28;20219;-68
2022/10/10 11:12:57;;;;;;;8.43;5.47;;;;;;;19.30;44.79;95707.53;4989826;28;20248;-68
2022/10/10 11:15:35;;;;;;;8.38;5.50;;;;;;;19.34;44.39;95696.31;4991338;28;20245;-67
2022/10/10 11:18:19;;;;;;;8.93;5.43;;;;;;;19.27;44.42;95705.25;5029706;28;20228;-67
2022/10/10 11:20:59;;;;;;;7.18;5.45;;;;;;;19.17;44.94;95705.56;5024904;28;20198;-66
2022/10/10 11:23:32;;;;;;;9.35;5.13;;;;;;;19.21;44.64;95706.84;5046862;28;20624;-65
2022/10/10 11:26:11;;;;;;;7.47;5.10;;;;;;;19.18;45.21;95707.22;5029368;28;20384;-64
2022/10/10 11:28:45;;;;;;;9.75;5.60;;;;;;;19.11;45.19;95714.31;5026164;28;20212;-66
2022/10/10 11:31:20;;;;;;;5.68;5.18;;;;;;;19.10;45.59;95710.00;5027676;28;20367;-66
2022/10/10 11:33:53;;;;;;;9.38;5.35;;;;;;;19.18;45.04;95705.38;5032156;28;20406;-65
2022/10/10 11:36:25;;;;;;;9.38;5.78;;;;;;;19.22;44.91;95702.31;5027507;28;20194;-65